sensor_id;sensor_type;location;lat;lon;timestamp;P1;durP1;ratioP1;P2;durP2;ratioP2
57389;SDS011;43217;52.694;6.214;2024-02-28T00:00:22;142.02;;;38.08;;
57389;SDS011;43217;52.694;6.214;2024-02-28T00:02:47;134.40;;;38.10;;
57389;SDS011;43217;52.694;6.214;2024-02-28T00:05:13;125.68;;;35.90;;
57389;SDS011;43217;52.694;6.214;2024-02-28T00:07:39;139.23;;;40.53;;
57389;SDS011;43217;52.694;6.214;2024-02-28T00:10:04;205.23;;;43.60;;
57389;SDS011;43217;52.694;6.214;2024-02-28T00:12:30;196.68;;;43.17;;
57389;SDS011;43217;52.694;6.214;2024-02-28T00:14:56;187.98;;;44.75;;
57389;SDS011;43217;52.694;6.214;2024-02-28T00:17:22;184.48;;;45.63;;
57389;SDS011;43217;52.694;6.214;2024-02-28T00:19:49;182.10;;;44.28;;
57389;SDS011;43217;52.694;6.214;2024-02-28T00:22:14;198.90;;;46.85;;
57389;SDS011;43217;52.694;6.214;2024-02-28T00:24:40;150.68;;;42.72;;
57389;SDS011;43217;52.694;6.214;2024-02-28T00:27:06;157.38;;;40.55;;
57389;SDS011;43217;52.694;6.214;2024-02-28T00:29:31;193.63;;;45.65;;
57389;SDS011;43217;52.694;6.214;2024-02-28T00:31:57;174.80;;;44.08;;
57389;SDS011;43217;52.694;6.214;2024-02-28T00:34:22;158.80;;;43.20;;
57389;SDS011;43217;52.694;6.214;2024-02-28T00:36:48;151.57;;;41.55;;
57389;SDS011;43217;52.694;6.214;2024-02-28T00:39:14;176.73;;;45.80;;
57389;SDS011;43217;52.694;6.214;2024-02-28T00:41:39;151.70;;;41.83;;
57389;SDS011;43217;52.694;6.214;2024-02-28T00:44:05;162.32;;;44.85;;
57389;SDS011;43217;52.694;6.214;2024-02-28T00:46:30;166.90;;;43.97;;
57389;SDS011;43217;52.694;6.214;2024-02-28T00:48:56;175.13;;;47.20;;
57389;SDS011;43217;52.694;6.214;2024-02-28T00:51:21;189.65;;;50.08;;
57389;SDS011;43217;52.694;6.214;2024-02-28T00:53:47;129.02;;;40.60;;
57389;SDS011;43217;52.694;6.214;2024-02-28T00:56:12;141.05;;;43.47;;
57389;SDS011;43217;52.694;6.214;2024-02-28T00:58:38;151.05;;;44.15;;
57389;SDS011;43217;52.694;6.214;2024-02-28T01:01:04;141.18;;;42.97;;
57389;SDS011;43217;52.694;6.214;2024-02-28T01:03:30;202.30;;;48.00;;
57389;SDS011;43217;52.694;6.214;2024-02-28T01:05:56;192.20;;;47.70;;
57389;SDS011;43217;52.694;6.214;2024-02-28T01:08:21;152.20;;;44.53;;
57389;SDS011;43217;52.694;6.214;2024-02-28T01:10:47;142.98;;;43.47;;
57389;SDS011;43217;52.694;6.214;2024-02-28T01:13:12;154.90;;;46.55;;
57389;SDS011;43217;52.694;6.214;2024-02-28T01:15:41;105.65;;;40.97;;
57389;SDS011;43217;52.694;6.214;2024-02-28T01:18:07;124.85;;;43.58;;
57389;SDS011;43217;52.694;6.214;2024-02-28T01:20:32;123.63;;;43.78;;
57389;SDS011;43217;52.694;6.214;2024-02-28T01:22:58;102.53;;;40.90;;
57389;SDS011;43217;52.694;6.214;2024-02-28T01:25:24;131.65;;;46.53;;
57389;SDS011;43217;52.694;6.214;2024-02-28T01:27:49;129.45;;;43.80;;
57389;SDS011;43217;52.694;6.214;2024-02-28T01:30:15;118.25;;;44.13;;
57389;SDS011;43217;52.694;6.214;2024-02-28T01:32:40;113.05;;;42.97;;
57389;SDS011;43217;52.694;6.214;2024-02-28T01:35:08;116.10;;;42.30;;
57389;SDS011;43217;52.694;6.214;2024-02-28T01:39:59;124.95;;;44.22;;
57389;SDS011;43217;52.694;6.214;2024-02-28T01:42:25;134.45;;;44.65;;
57389;SDS011;43217;52.694;6.214;2024-02-28T01:44:51;117.03;;;42.83;;
57389;SDS011;43217;52.694;6.214;2024-02-28T01:47:17;99.57;;;41.17;;
57389;SDS011;43217;52.694;6.214;2024-02-28T01:49:42;94.47;;;41.70;;
57389;SDS011;43217;52.694;6.214;2024-02-28T01:52:11;117.22;;;43.35;;
57389;SDS011;43217;52.694;6.214;2024-02-28T01:54:37;122.65;;;44.72;;
57389;SDS011;43217;52.694;6.214;2024-02-28T01:57:04;122.30;;;46.63;;
57389;SDS011;43217;52.694;6.214;2024-02-28T01:59:31;128.18;;;46.03;;
57389;SDS011;43217;52.694;6.214;2024-02-28T02:01:57;133.00;;;48.05;;
57389;SDS011;43217;52.694;6.214;2024-02-28T02:04:23;144.32;;;47.67;;
57389;SDS011;43217;52.694;6.214;2024-02-28T02:06:49;112.80;;;43.03;;
57389;SDS011;43217;52.694;6.214;2024-02-28T02:09:17;156.02;;;48.88;;
57389;SDS011;43217;52.694;6.214;2024-02-28T02:11:43;118.55;;;45.63;;
57389;SDS011;43217;52.694;6.214;2024-02-28T02:14:09;119.18;;;47.20;;
57389;SDS011;43217;52.694;6.214;2024-02-28T02:16:35;118.97;;;46.45;;
57389;SDS011;43217;52.694;6.214;2024-02-28T02:19:00;168.98;;;50.72;;
57389;SDS011;43217;52.694;6.214;2024-02-28T02:21:27;165.63;;;49.60;;
57389;SDS011;43217;52.694;6.214;2024-02-28T02:23:55;159.30;;;47.72;;
57389;SDS011;43217;52.694;6.214;2024-02-28T02:26:21;174.65;;;48.95;;
57389;SDS011;43217;52.694;6.214;2024-02-28T02:28:47;181.32;;;49.45;;
57389;SDS011;43217;52.694;6.214;2024-02-28T02:31:13;152.95;;;47.08;;
57389;SDS011;43217;52.694;6.214;2024-02-28T02:33:38;146.63;;;48.05;;
57389;SDS011;43217;52.694;6.214;2024-02-28T02:36:04;153.13;;;47.92;;
57389;SDS011;43217;52.694;6.214;2024-02-28T02:38:30;116.40;;;43.90;;
57389;SDS011;43217;52.694;6.214;2024-02-28T02:40:55;188.90;;;49.75;;
57389;SDS011;43217;52.694;6.214;2024-02-28T02:43:21;135.45;;;46.70;;
57389;SDS011;43217;52.694;6.214;2024-02-28T02:45:47;122.97;;;45.70;;
57389;SDS011;43217;52.694;6.214;2024-02-28T02:48:12;132.38;;;44.38;;
57389;SDS011;43217;52.694;6.214;2024-02-28T02:50:38;163.93;;;51.42;;
57389;SDS011;43217;52.694;6.214;2024-02-28T02:53:04;126.82;;;47.15;;
57389;SDS011;43217;52.694;6.214;2024-02-28T02:55:32;110.90;;;45.58;;
57389;SDS011;43217;52.694;6.214;2024-02-28T02:57:57;179.80;;;50.42;;
57389;SDS011;43217;52.694;6.214;2024-02-28T03:00:23;185.45;;;51.40;;
57389;SDS011;43217;52.694;6.214;2024-02-28T03:02:49;134.60;;;47.28;;
57389;SDS011;43217;52.694;6.214;2024-02-28T03:05:14;150.35;;;46.63;;
57389;SDS011;43217;52.694;6.214;2024-02-28T03:07:40;196.15;;;51.42;;
57389;SDS011;43217;52.694;6.214;2024-02-28T03:10:05;214.00;;;52.40;;
57389;SDS011;43217;52.694;6.214;2024-02-28T03:12:31;145.57;;;47.40;;
57389;SDS011;43217;52.694;6.214;2024-02-28T03:14:57;210.45;;;51.45;;
57389;SDS011;43217;52.694;6.214;2024-02-28T03:17:23;102.57;;;41.55;;
57389;SDS011;43217;52.694;6.214;2024-02-28T03:19:49;139.65;;;45.28;;
57389;SDS011;43217;52.694;6.214;2024-02-28T03:22:14;108.97;;;41.63;;
57389;SDS011;43217;52.694;6.214;2024-02-28T03:24:40;135.00;;;45.22;;
57389;SDS011;43217;52.694;6.214;2024-02-28T03:27:06;140.93;;;45.20;;
57389;SDS011;43217;52.694;6.214;2024-02-28T03:29:32;153.32;;;46.28;;
57389;SDS011;43217;52.694;6.214;2024-02-28T03:31:58;125.93;;;43.85;;
57389;SDS011;43217;52.694;6.214;2024-02-28T03:34:23;143.98;;;48.22;;
57389;SDS011;43217;52.694;6.214;2024-02-28T03:36:49;113.13;;;42.22;;
57389;SDS011;43217;52.694;6.214;2024-02-28T03:39:15;129.05;;;45.35;;
57389;SDS011;43217;52.694;6.214;2024-02-28T03:41:40;116.22;;;43.42;;
57389;SDS011;43217;52.694;6.214;2024-02-28T03:44:06;123.05;;;43.33;;
57389;SDS011;43217;52.694;6.214;2024-02-28T03:46:32;130.52;;;46.72;;
57389;SDS011;43217;52.694;6.214;2024-02-28T03:48:58;117.15;;;42.83;;
57389;SDS011;43217;52.694;6.214;2024-02-28T03:51:23;119.57;;;45.17;;
57389;SDS011;43217;52.694;6.214;2024-02-28T03:53:49;121.32;;;45.03;;
57389;SDS011;43217;52.694;6.214;2024-02-28T03:56:24;119.45;;;45.25;;
57389;SDS011;43217;52.694;6.214;2024-02-28T03:58:50;98.68;;;43.03;;
57389;SDS011;43217;52.694;6.214;2024-02-28T04:01:17;101.65;;;42.90;;
57389;SDS011;43217;52.694;6.214;2024-02-28T04:03:43;102.47;;;43.50;;
57389;SDS011;43217;52.694;6.214;2024-02-28T04:06:09;93.60;;;42.03;;
57389;SDS011;43217;52.694;6.214;2024-02-28T04:08:35;93.75;;;41.22;;
57389;SDS011;43217;52.694;6.214;2024-02-28T04:11:01;83.28;;;40.30;;
57389;SDS011;43217;52.694;6.214;2024-02-28T04:13:26;95.95;;;42.60;;
57389;SDS011;43217;52.694;6.214;2024-02-28T04:15:52;88.40;;;40.67;;
57389;SDS011;43217;52.694;6.214;2024-02-28T04:18:18;93.63;;;41.55;;
57389;SDS011;43217;52.694;6.214;2024-02-28T04:20:43;95.63;;;41.60;;
57389;SDS011;43217;52.694;6.214;2024-02-28T04:23:09;91.18;;;39.33;;
57389;SDS011;43217;52.694;6.214;2024-02-28T04:25:34;83.97;;;40.20;;
57389;SDS011;43217;52.694;6.214;2024-02-28T04:28:01;71.13;;;37.35;;
57389;SDS011;43217;52.694;6.214;2024-02-28T04:30:27;80.15;;;39.63;;
57389;SDS011;43217;52.694;6.214;2024-02-28T04:32:53;78.50;;;38.50;;
57389;SDS011;43217;52.694;6.214;2024-02-28T04:35:19;78.55;;;37.38;;
57389;SDS011;43217;52.694;6.214;2024-02-28T04:37:45;85.93;;;40.05;;
57389;SDS011;43217;52.694;6.214;2024-02-28T04:40:11;71.95;;;36.70;;
57389;SDS011;43217;52.694;6.214;2024-02-28T04:42:37;82.95;;;38.50;;
57389;SDS011;43217;52.694;6.214;2024-02-28T04:45:06;74.25;;;36.67;;
57389;SDS011;43217;52.694;6.214;2024-02-28T04:47:32;73.93;;;38.75;;
57389;SDS011;43217;52.694;6.214;2024-02-28T04:49:58;85.43;;;41.00;;
57389;SDS011;43217;52.694;6.214;2024-02-28T04:52:23;78.18;;;38.78;;
57389;SDS011;43217;52.694;6.214;2024-02-28T04:54:50;76.45;;;39.55;;
57389;SDS011;43217;52.694;6.214;2024-02-28T04:57:18;73.07;;;39.88;;
57389;SDS011;43217;52.694;6.214;2024-02-28T04:59:44;74.07;;;38.75;;
57389;SDS011;43217;52.694;6.214;2024-02-28T05:02:10;79.43;;;39.50;;
57389;SDS011;43217;52.694;6.214;2024-02-28T05:04:36;73.82;;;38.13;;
57389;SDS011;43217;52.694;6.214;2024-02-28T05:07:01;66.75;;;36.40;;
57389;SDS011;43217;52.694;6.214;2024-02-28T05:09:27;78.32;;;38.47;;
57389;SDS011;43217;52.694;6.214;2024-02-28T05:11:53;75.57;;;40.33;;
57389;SDS011;43217;52.694;6.214;2024-02-28T05:14:18;69.50;;;37.17;;
57389;SDS011;43217;52.694;6.214;2024-02-28T05:16:44;65.05;;;36.42;;
57389;SDS011;43217;52.694;6.214;2024-02-28T05:19:11;68.18;;;37.90;;
57389;SDS011;43217;52.694;6.214;2024-02-28T05:21:41;64.97;;;35.25;;
57389;SDS011;43217;52.694;6.214;2024-02-28T05:24:07;67.80;;;36.80;;
57389;SDS011;43217;52.694;6.214;2024-02-28T05:26:37;66.32;;;37.13;;
57389;SDS011;43217;52.694;6.214;2024-02-28T05:29:03;63.05;;;36.50;;
57389;SDS011;43217;52.694;6.214;2024-02-28T05:31:30;63.85;;;37.58;;
57389;SDS011;43217;52.694;6.214;2024-02-28T05:33:59;63.42;;;35.03;;
57389;SDS011;43217;52.694;6.214;2024-02-28T05:36:28;63.55;;;37.97;;
57389;SDS011;43217;52.694;6.214;2024-02-28T05:38:56;65.45;;;36.97;;
57389;SDS011;43217;52.694;6.214;2024-02-28T05:41:22;64.93;;;35.20;;
57389;SDS011;43217;52.694;6.214;2024-02-28T05:43:48;61.47;;;34.50;;
57389;SDS011;43217;52.694;6.214;2024-02-28T05:46:15;61.75;;;35.63;;
57389;SDS011;43217;52.694;6.214;2024-02-28T05:48:42;67.93;;;36.92;;
57389;SDS011;43217;52.694;6.214;2024-02-28T05:51:08;59.22;;;33.78;;
57389;SDS011;43217;52.694;6.214;2024-02-28T05:53:36;64.97;;;36.45;;
57389;SDS011;43217;52.694;6.214;2024-02-28T05:56:02;66.50;;;35.90;;
57389;SDS011;43217;52.694;6.214;2024-02-28T05:58:28;67.60;;;36.28;;
57389;SDS011;43217;52.694;6.214;2024-02-28T06:00:54;63.13;;;35.42;;
57389;SDS011;43217;52.694;6.214;2024-02-28T06:03:19;59.60;;;34.15;;
57389;SDS011;43217;52.694;6.214;2024-02-28T06:05:45;60.17;;;35.38;;
57389;SDS011;43217;52.694;6.214;2024-02-28T06:08:11;56.35;;;33.22;;
57389;SDS011;43217;52.694;6.214;2024-02-28T06:10:37;57.25;;;33.88;;
57389;SDS011;43217;52.694;6.214;2024-02-28T06:13:03;61.30;;;35.67;;
57389;SDS011;43217;52.694;6.214;2024-02-28T06:15:29;60.67;;;34.00;;
57389;SDS011;43217;52.694;6.214;2024-02-28T06:17:57;64.90;;;34.53;;
57389;SDS011;43217;52.694;6.214;2024-02-28T06:20:25;61.45;;;35.53;;
57389;SDS011;43217;52.694;6.214;2024-02-28T06:22:51;62.67;;;35.53;;
57389;SDS011;43217;52.694;6.214;2024-02-28T06:25:17;63.95;;;37.22;;
57389;SDS011;43217;52.694;6.214;2024-02-28T06:27:47;62.17;;;35.90;;
57389;SDS011;43217;52.694;6.214;2024-02-28T06:30:13;60.20;;;35.45;;
57389;SDS011;43217;52.694;6.214;2024-02-28T06:32:39;61.65;;;36.83;;
57389;SDS011;43217;52.694;6.214;2024-02-28T06:35:06;56.33;;;33.42;;
57389;SDS011;43217;52.694;6.214;2024-02-28T06:37:32;60.10;;;34.67;;
57389;SDS011;43217;52.694;6.214;2024-02-28T06:39:58;60.03;;;36.33;;
57389;SDS011;43217;52.694;6.214;2024-02-28T06:42:24;63.78;;;36.88;;
57389;SDS011;43217;52.694;6.214;2024-02-28T06:44:49;62.28;;;36.75;;
57389;SDS011;43217;52.694;6.214;2024-02-28T06:47:15;59.95;;;36.63;;
57389;SDS011;43217;52.694;6.214;2024-02-28T06:49:41;64.25;;;37.85;;
57389;SDS011;43217;52.694;6.214;2024-02-28T06:52:07;66.63;;;37.33;;
57389;SDS011;43217;52.694;6.214;2024-02-28T06:54:33;69.63;;;38.67;;
57389;SDS011;43217;52.694;6.214;2024-02-28T06:56:58;65.30;;;36.78;;
57389;SDS011;43217;52.694;6.214;2024-02-28T06:59:24;64.90;;;37.00;;
57389;SDS011;43217;52.694;6.214;2024-02-28T07:01:49;70.90;;;38.22;;
57389;SDS011;43217;52.694;6.214;2024-02-28T07:04:15;65.30;;;38.42;;
57389;SDS011;43217;52.694;6.214;2024-02-28T07:06:42;64.03;;;37.40;;
57389;SDS011;43217;52.694;6.214;2024-02-28T07:09:07;61.72;;;36.70;;
57389;SDS011;43217;52.694;6.214;2024-02-28T07:11:34;65.88;;;39.28;;
57389;SDS011;43217;52.694;6.214;2024-02-28T07:13:59;67.38;;;37.92;;
57389;SDS011;43217;52.694;6.214;2024-02-28T07:16:28;62.78;;;37.42;;
57389;SDS011;43217;52.694;6.214;2024-02-28T07:18:54;68.18;;;38.35;;
57389;SDS011;43217;52.694;6.214;2024-02-28T07:21:19;63.15;;;37.92;;
57389;SDS011;43217;52.694;6.214;2024-02-28T07:23:45;65.18;;;38.72;;
57389;SDS011;43217;52.694;6.214;2024-02-28T07:26:14;68.18;;;39.42;;
57389;SDS011;43217;52.694;6.214;2024-02-28T07:28:40;62.05;;;37.00;;
57389;SDS011;43217;52.694;6.214;2024-02-28T07:31:06;66.28;;;39.45;;
57389;SDS011;43217;52.694;6.214;2024-02-28T07:33:32;67.65;;;37.78;;
57389;SDS011;43217;52.694;6.214;2024-02-28T07:35:57;64.00;;;38.67;;
57389;SDS011;43217;52.694;6.214;2024-02-28T07:38:26;64.43;;;38.50;;
57389;SDS011;43217;52.694;6.214;2024-02-28T07:40:52;64.67;;;39.73;;
57389;SDS011;43217;52.694;6.214;2024-02-28T07:43:18;62.35;;;38.83;;
57389;SDS011;43217;52.694;6.214;2024-02-28T07:45:44;65.30;;;39.05;;
57389;SDS011;43217;52.694;6.214;2024-02-28T07:48:09;63.17;;;37.75;;
57389;SDS011;43217;52.694;6.214;2024-02-28T07:50:35;63.00;;;37.80;;
57389;SDS011;43217;52.694;6.214;2024-02-28T07:53:00;60.13;;;37.70;;
57389;SDS011;43217;52.694;6.214;2024-02-28T07:55:26;59.65;;;36.85;;
57389;SDS011;43217;52.694;6.214;2024-02-28T07:57:52;60.15;;;36.25;;
57389;SDS011;43217;52.694;6.214;2024-02-28T08:00:18;63.60;;;38.67;;
57389;SDS011;43217;52.694;6.214;2024-02-28T08:02:45;61.35;;;38.13;;
57389;SDS011;43217;52.694;6.214;2024-02-28T08:05:11;57.92;;;36.40;;
57389;SDS011;43217;52.694;6.214;2024-02-28T08:07:37;59.80;;;36.72;;
57389;SDS011;43217;52.694;6.214;2024-02-28T08:10:03;60.78;;;38.45;;
57389;SDS011;43217;52.694;6.214;2024-02-28T08:12:30;63.30;;;38.37;;
57389;SDS011;43217;52.694;6.214;2024-02-28T08:14:57;61.10;;;38.37;;
57389;SDS011;43217;52.694;6.214;2024-02-28T08:17:23;63.63;;;40.67;;
57389;SDS011;43217;52.694;6.214;2024-02-28T08:19:48;59.17;;;39.72;;
57389;SDS011;43217;52.694;6.214;2024-02-28T08:22:14;60.63;;;38.95;;
57389;SDS011;43217;52.694;6.214;2024-02-28T08:24:39;58.90;;;39.78;;
57389;SDS011;43217;52.694;6.214;2024-02-28T08:27:05;62.45;;;38.85;;
57389;SDS011;43217;52.694;6.214;2024-02-28T08:29:31;56.33;;;37.33;;
57389;SDS011;43217;52.694;6.214;2024-02-28T08:31:58;61.20;;;39.13;;
57389;SDS011;43217;52.694;6.214;2024-02-28T08:34:23;70.82;;;40.45;;
57389;SDS011;43217;52.694;6.214;2024-02-28T08:36:50;57.20;;;39.83;;
57389;SDS011;43217;52.694;6.214;2024-02-28T08:39:17;62.03;;;39.13;;
57389;SDS011;43217;52.694;6.214;2024-02-28T08:41:42;60.83;;;40.38;;
57389;SDS011;43217;52.694;6.214;2024-02-28T08:44:08;62.85;;;41.85;;
57389;SDS011;43217;52.694;6.214;2024-02-28T08:46:33;61.42;;;40.15;;
57389;SDS011;43217;52.694;6.214;2024-02-28T08:48:59;62.35;;;39.55;;
57389;SDS011;43217;52.694;6.214;2024-02-28T08:51:25;62.60;;;41.03;;
57389;SDS011;43217;52.694;6.214;2024-02-28T08:53:50;64.45;;;42.22;;
57389;SDS011;43217;52.694;6.214;2024-02-28T08:56:17;62.25;;;40.95;;
57389;SDS011;43217;52.694;6.214;2024-02-28T08:58:43;71.32;;;43.20;;
57389;SDS011;43217;52.694;6.214;2024-02-28T09:01:12;63.33;;;44.03;;
57389;SDS011;43217;52.694;6.214;2024-02-28T09:03:41;65.55;;;44.10;;
57389;SDS011;43217;52.694;6.214;2024-02-28T09:06:07;73.20;;;49.20;;
57389;SDS011;43217;52.694;6.214;2024-02-28T09:08:32;63.30;;;43.92;;
57389;SDS011;43217;52.694;6.214;2024-02-28T09:10:58;63.53;;;43.13;;
57389;SDS011;43217;52.694;6.214;2024-02-28T09:13:24;62.97;;;43.25;;
57389;SDS011;43217;52.694;6.214;2024-02-28T09:15:49;59.50;;;41.25;;
57389;SDS011;43217;52.694;6.214;2024-02-28T09:18:16;61.55;;;42.80;;
57389;SDS011;43217;52.694;6.214;2024-02-28T09:20:41;64.10;;;43.88;;
57389;SDS011;43217;52.694;6.214;2024-02-28T09:23:07;62.20;;;42.33;;
57389;SDS011;43217;52.694;6.214;2024-02-28T09:25:33;59.45;;;42.10;;
57389;SDS011;43217;52.694;6.214;2024-02-28T09:28:00;55.38;;;40.92;;
57389;SDS011;43217;52.694;6.214;2024-02-28T09:30:26;63.30;;;43.17;;
57389;SDS011;43217;52.694;6.214;2024-02-28T09:32:52;61.33;;;44.47;;
57389;SDS011;43217;52.694;6.214;2024-02-28T09:35:17;54.97;;;40.97;;
57389;SDS011;43217;52.694;6.214;2024-02-28T09:37:43;53.80;;;40.47;;
57389;SDS011;43217;52.694;6.214;2024-02-28T09:40:09;51.58;;;39.20;;
57389;SDS011;43217;52.694;6.214;2024-02-28T09:42:35;53.58;;;40.70;;
57389;SDS011;43217;52.694;6.214;2024-02-28T09:45:02;52.60;;;39.00;;
57389;SDS011;43217;52.694;6.214;2024-02-28T09:47:29;55.13;;;39.45;;
57389;SDS011;43217;52.694;6.214;2024-02-28T09:49:55;52.20;;;39.72;;
57389;SDS011;43217;52.694;6.214;2024-02-28T09:52:23;54.03;;;39.00;;
57389;SDS011;43217;52.694;6.214;2024-02-28T09:54:49;54.15;;;39.72;;
57389;SDS011;43217;52.694;6.214;2024-02-28T09:57:15;50.40;;;39.67;;
57389;SDS011;43217;52.694;6.214;2024-02-28T09:59:41;49.55;;;39.55;;
57389;SDS011;43217;52.694;6.214;2024-02-28T10:02:07;47.22;;;39.45;;
57389;SDS011;43217;52.694;6.214;2024-02-28T10:07:11;49.63;;;38.58;;
57389;SDS011;43217;52.694;6.214;2024-02-28T10:09:38;48.85;;;38.15;;
57389;SDS011;43217;52.694;6.214;2024-02-28T10:12:04;49.00;;;38.00;;
57389;SDS011;43217;52.694;6.214;2024-02-28T10:14:30;56.40;;;44.25;;
57389;SDS011;43217;52.694;6.214;2024-02-28T10:16:56;46.65;;;39.67;;
57389;SDS011;43217;52.694;6.214;2024-02-28T10:19:21;60.38;;;50.67;;
57389;SDS011;43217;52.694;6.214;2024-02-28T10:21:47;47.33;;;38.85;;
57389;SDS011;43217;52.694;6.214;2024-02-28T10:24:13;50.03;;;40.38;;
57389;SDS011;43217;52.694;6.214;2024-02-28T10:26:45;43.75;;;36.80;;
57389;SDS011;43217;52.694;6.214;2024-02-28T10:29:23;43.83;;;35.38;;
57389;SDS011;43217;52.694;6.214;2024-02-28T10:31:54;42.20;;;36.42;;
57389;SDS011;43217;52.694;6.214;2024-02-28T10:34:20;44.53;;;36.97;;
57389;SDS011;43217;52.694;6.214;2024-02-28T10:36:46;43.67;;;36.95;;
57389;SDS011;43217;52.694;6.214;2024-02-28T10:39:12;42.80;;;36.13;;
57389;SDS011;43217;52.694;6.214;2024-02-28T10:41:39;41.90;;;36.97;;
57389;SDS011;43217;52.694;6.214;2024-02-28T10:44:05;42.65;;;36.20;;
57389;SDS011;43217;52.694;6.214;2024-02-28T10:46:31;42.78;;;36.85;;
57389;SDS011;43217;52.694;6.214;2024-02-28T10:48:57;52.33;;;37.90;;
57389;SDS011;43217;52.694;6.214;2024-02-28T10:51:23;42.70;;;36.88;;
57389;SDS011;43217;52.694;6.214;2024-02-28T10:54:11;42.58;;;37.38;;
57389;SDS011;43217;52.694;6.214;2024-02-28T10:56:38;43.17;;;37.70;;
57389;SDS011;43217;52.694;6.214;2024-02-28T10:59:06;43.15;;;37.58;;
57389;SDS011;43217;52.694;6.214;2024-02-28T11:01:36;43.03;;;38.45;;
57389;SDS011;43217;52.694;6.214;2024-02-28T11:04:04;44.88;;;39.15;;
57389;SDS011;43217;52.694;6.214;2024-02-28T11:06:30;43.15;;;38.35;;
57389;SDS011;43217;52.694;6.214;2024-02-28T11:08:58;41.92;;;37.35;;
57389;SDS011;43217;52.694;6.214;2024-02-28T11:11:25;44.63;;;39.00;;
57389;SDS011;43217;52.694;6.214;2024-02-28T11:13:56;45.60;;;39.83;;
57389;SDS011;43217;52.694;6.214;2024-02-28T11:16:32;45.50;;;39.67;;
57389;SDS011;43217;52.694;6.214;2024-02-28T11:18:59;47.72;;;39.28;;
57389;SDS011;43217;52.694;6.214;2024-02-28T11:21:26;44.53;;;39.65;;
57389;SDS011;43217;52.694;6.214;2024-02-28T11:23:57;44.92;;;40.22;;
57389;SDS011;43217;52.694;6.214;2024-02-28T11:26:24;46.05;;;41.05;;
57389;SDS011;43217;52.694;6.214;2024-02-28T11:28:50;44.97;;;40.13;;
57389;SDS011;43217;52.694;6.214;2024-02-28T11:31:16;45.53;;;40.67;;
57389;SDS011;43217;52.694;6.214;2024-02-28T11:33:43;42.80;;;37.88;;
57389;SDS011;43217;52.694;6.214;2024-02-28T11:36:12;44.58;;;39.63;;
57389;SDS011;43217;52.694;6.214;2024-02-28T11:38:39;44.72;;;39.85;;
57389;SDS011;43217;52.694;6.214;2024-02-28T11:41:05;41.17;;;36.33;;
57389;SDS011;43217;52.694;6.214;2024-02-28T11:43:32;42.78;;;38.15;;
57389;SDS011;43217;52.694;6.214;2024-02-28T11:45:59;42.28;;;37.63;;
57389;SDS011;43217;52.694;6.214;2024-02-28T11:48:25;43.85;;;38.95;;
57389;SDS011;43217;52.694;6.214;2024-02-28T11:50:54;42.85;;;37.90;;
57389;SDS011;43217;52.694;6.214;2024-02-28T11:53:21;44.67;;;39.88;;
57389;SDS011;43217;52.694;6.214;2024-02-28T11:55:47;45.00;;;40.28;;
57389;SDS011;43217;52.694;6.214;2024-02-28T11:58:13;45.83;;;40.88;;
57389;SDS011;43217;52.694;6.214;2024-02-28T12:00:51;46.08;;;39.45;;
57389;SDS011;43217;52.694;6.214;2024-02-28T12:03:24;48.63;;;42.40;;
57389;SDS011;43217;52.694;6.214;2024-02-28T12:05:51;45.58;;;40.67;;
57389;SDS011;43217;52.694;6.214;2024-02-28T12:08:17;45.05;;;40.28;;
57389;SDS011;43217;52.694;6.214;2024-02-28T12:10:47;46.45;;;41.47;;
57389;SDS011;43217;52.694;6.214;2024-02-28T12:13:19;45.08;;;40.28;;
57389;SDS011;43217;52.694;6.214;2024-02-28T12:15:47;43.78;;;39.08;;
57389;SDS011;43217;52.694;6.214;2024-02-28T12:18:14;44.53;;;39.70;;
57389;SDS011;43217;52.694;6.214;2024-02-28T12:20:40;45.08;;;38.83;;
57389;SDS011;43217;52.694;6.214;2024-02-28T12:23:06;45.40;;;40.55;;
57389;SDS011;43217;52.694;6.214;2024-02-28T12:25:33;49.80;;;41.25;;
57389;SDS011;43217;52.694;6.214;2024-02-28T12:27:59;46.20;;;41.20;;
57389;SDS011;43217;52.694;6.214;2024-02-28T12:30:26;45.05;;;40.28;;
57389;SDS011;43217;52.694;6.214;2024-02-28T12:32:51;48.40;;;41.60;;
57389;SDS011;43217;52.694;6.214;2024-02-28T12:35:17;44.65;;;39.78;;
57389;SDS011;43217;52.694;6.214;2024-02-28T12:37:42;45.88;;;40.65;;
57389;SDS011;43217;52.694;6.214;2024-02-28T12:40:08;44.08;;;39.08;;
57389;SDS011;43217;52.694;6.214;2024-02-28T12:42:34;43.33;;;38.70;;
57389;SDS011;43217;52.694;6.214;2024-02-28T12:45:01;45.72;;;39.88;;
57389;SDS011;43217;52.694;6.214;2024-02-28T12:47:27;46.53;;;40.28;;
57389;SDS011;43217;52.694;6.214;2024-02-28T12:49:53;44.53;;;39.58;;
57389;SDS011;43217;52.694;6.214;2024-02-28T12:52:19;45.40;;;38.97;;
57389;SDS011;43217;52.694;6.214;2024-02-28T12:54:45;46.30;;;39.42;;
57389;SDS011;43217;52.694;6.214;2024-02-28T12:57:10;45.67;;;39.22;;
57389;SDS011;43217;52.694;6.214;2024-02-28T12:59:38;44.22;;;39.40;;
57389;SDS011;43217;52.694;6.214;2024-02-28T13:02:05;46.47;;;39.45;;
57389;SDS011;43217;52.694;6.214;2024-02-28T13:04:31;42.22;;;36.88;;
57389;SDS011;43217;52.694;6.214;2024-02-28T13:06:57;42.15;;;36.47;;
57389;SDS011;43217;52.694;6.214;2024-02-28T13:09:23;41.92;;;36.67;;
57389;SDS011;43217;52.694;6.214;2024-02-28T13:11:51;41.97;;;37.42;;
57389;SDS011;43217;52.694;6.214;2024-02-28T13:14:17;41.83;;;35.55;;
57389;SDS011;43217;52.694;6.214;2024-02-28T13:16:42;40.72;;;35.05;;
57389;SDS011;43217;52.694;6.214;2024-02-28T13:19:09;43.65;;;35.92;;
57389;SDS011;43217;52.694;6.214;2024-02-28T13:21:34;38.97;;;33.95;;
57389;SDS011;43217;52.694;6.214;2024-02-28T13:24:02;40.90;;;34.10;;
57389;SDS011;43217;52.694;6.214;2024-02-28T13:26:28;42.13;;;35.05;;
57389;SDS011;43217;52.694;6.214;2024-02-28T13:28:54;38.67;;;33.75;;
57389;SDS011;43217;52.694;6.214;2024-02-28T13:31:19;38.78;;;33.30;;
57389;SDS011;43217;52.694;6.214;2024-02-28T13:33:45;41.83;;;34.95;;
57389;SDS011;43217;52.694;6.214;2024-02-28T13:36:13;41.45;;;34.70;;
57389;SDS011;43217;52.694;6.214;2024-02-28T13:38:39;39.80;;;33.83;;
57389;SDS011;43217;52.694;6.214;2024-02-28T13:41:04;39.50;;;33.47;;
57389;SDS011;43217;52.694;6.214;2024-02-28T13:43:30;38.88;;;33.55;;
57389;SDS011;43217;52.694;6.214;2024-02-28T13:45:56;37.95;;;32.75;;
57389;SDS011;43217;52.694;6.214;2024-02-28T13:48:25;40.70;;;32.67;;
57389;SDS011;43217;52.694;6.214;2024-02-28T13:50:56;40.13;;;33.25;;
57389;SDS011;43217;52.694;6.214;2024-02-28T13:53:21;39.40;;;34.28;;
57389;SDS011;43217;52.694;6.214;2024-02-28T13:55:47;42.00;;;33.60;;
57389;SDS011;43217;52.694;6.214;2024-02-28T13:58:13;40.97;;;33.45;;
57389;SDS011;43217;52.694;6.214;2024-02-28T14:00:43;41.80;;;33.72;;
57389;SDS011;43217;52.694;6.214;2024-02-28T14:03:10;40.15;;;33.70;;
57389;SDS011;43217;52.694;6.214;2024-02-28T14:05:36;39.65;;;32.55;;
57389;SDS011;43217;52.694;6.214;2024-02-28T14:08:02;42.08;;;33.33;;
57389;SDS011;43217;52.694;6.214;2024-02-28T14:10:33;40.88;;;34.58;;
57389;SDS011;43217;52.694;6.214;2024-02-28T14:12:58;41.50;;;34.10;;
57389;SDS011;43217;52.694;6.214;2024-02-28T14:15:24;40.47;;;33.67;;
57389;SDS011;43217;52.694;6.214;2024-02-28T14:17:50;46.40;;;36.25;;